createdAt,value
2023-02-26T00:01:37.704Z,1.40
2023-02-26T00:04:05.956Z,1.67
2023-02-26T00:06:57.264Z,1.77
2023-02-26T00:09:31.364Z,1.90
2023-02-26T00:11:59.596Z,1.70
2023-02-26T00:14:29.513Z,1.10
2023-02-26T00:17:27.043Z,1.80
2023-02-26T00:19:54.078Z,1.50
2023-02-26T00:22:21.106Z,1.90
2023-02-26T00:24:47.835Z,2.13
2023-02-26T00:27:14.689Z,1.70
2023-02-26T00:29:43.817Z,1.90
2023-02-26T00:32:10.827Z,1.50
2023-02-26T00:34:42.608Z,1.60
2023-02-26T00:37:31.151Z,1.53
2023-02-26T00:40:22.606Z,1.67
2023-02-26T00:42:52.021Z,1.90
2023-02-26T00:45:21.567Z,1.60
2023-02-26T00:47:55.907Z,2.00
2023-02-26T00:50:26.971Z,2.13
2023-02-26T00:53:22.146Z,1.80
2023-02-26T00:55:51.213Z,1.70
2023-02-26T00:58:21.186Z,1.77
2023-02-26T01:00:50.247Z,1.70
2023-02-26T01:03:17.193Z,1.80
2023-02-26T01:05:44.180Z,1.70
2023-02-26T01:08:30.941Z,1.40
2023-02-26T01:10:58.055Z,1.40
2023-02-26T01:13:24.968Z,1.50
2023-02-26T01:16:01.198Z,1.50
2023-02-26T01:18:38.788Z,1.50
2023-02-26T01:21:10.265Z,1.87
2023-02-26T01:23:43.779Z,1.50
2023-02-26T01:26:34.629Z,1.60
2023-02-26T01:29:04.645Z,1.87
2023-02-26T01:32:09.834Z,1.60
2023-02-26T01:34:46.828Z,1.60
2023-02-26T01:37:13.391Z,1.43
2023-02-26T01:39:45.817Z,1.83
2023-02-26T01:42:21.870Z,2.20
2023-02-26T01:45:04.631Z,1.90
2023-02-26T01:47:49.626Z,1.80
2023-02-26T01:50:25.822Z,1.70
2023-02-26T01:53:01.778Z,1.50
2023-02-26T01:55:29.955Z,1.67
2023-02-26T01:58:01.160Z,2.17
2023-02-26T02:00:30.259Z,1.80
2023-02-26T02:03:02.172Z,1.73
2023-02-26T02:05:35.910Z,1.40
2023-02-26T02:08:08.832Z,1.97
2023-02-26T02:10:35.920Z,1.83
2023-02-26T02:13:02.662Z,2.10
2023-02-26T02:15:46.801Z,2.00
2023-02-26T02:18:54.527Z,1.70
2023-02-26T02:21:38.837Z,2.07
2023-02-26T02:24:08.504Z,1.50
2023-02-26T02:26:42.775Z,1.97
2023-02-26T02:29:28.366Z,1.80
2023-02-26T02:32:05.457Z,2.00
2023-02-26T02:34:40.610Z,1.40
2023-02-26T02:37:22.625Z,1.57
2023-02-26T02:40:08.306Z,1.53
2023-02-26T02:42:49.442Z,1.63
2023-02-26T02:45:25.815Z,1.27
2023-02-26T02:48:07.576Z,1.50
2023-02-26T02:50:40.252Z,1.37
2023-02-26T02:53:12.992Z,1.40
2023-02-26T02:55:47.603Z,1.50
2023-02-26T02:58:25.158Z,1.77
2023-02-26T03:00:57.745Z,1.60
2023-02-26T03:04:07.557Z,2.03
2023-02-26T03:06:35.432Z,1.80
2023-02-26T03:09:06.691Z,1.70
2023-02-26T03:11:34.116Z,2.00
2023-02-26T03:14:02.635Z,1.90
2023-02-26T03:16:39.130Z,1.70
2023-02-26T03:19:15.884Z,1.50
2023-02-26T03:21:58.213Z,1.50
2023-02-26T03:25:00.169Z,1.60
2023-02-26T03:27:35.831Z,1.80
2023-02-26T03:30:07.027Z,1.67
2023-02-26T03:32:54.756Z,1.90
2023-02-26T03:35:34.478Z,1.43
2023-02-26T03:38:09.826Z,1.63
2023-02-26T03:40:47.840Z,1.47
2023-02-26T03:43:24.921Z,1.73
2023-02-26T03:45:57.016Z,1.57
2023-02-26T03:48:31.776Z,1.37
2023-02-26T03:51:06.735Z,1.87
2023-02-26T03:53:59.745Z,1.63
2023-02-26T03:56:45.020Z,1.70
2023-02-26T03:59:19.584Z,1.30
2023-02-26T04:01:49.459Z,1.60
2023-02-26T04:04:28.505Z,1.70
2023-02-26T04:07:02.595Z,1.50
2023-02-26T04:09:30.200Z,1.87
2023-02-26T04:11:58.374Z,1.63
2023-02-26T04:14:27.415Z,1.60
2023-02-26T04:16:56.334Z,1.10
2023-02-26T04:19:25.251Z,1.60
2023-02-26T04:21:55.161Z,1.60
2023-02-26T04:24:22.539Z,1.63
2023-02-26T04:26:49.303Z,2.00
2023-02-26T04:29:16.626Z,1.40
2023-02-26T04:31:43.905Z,2.13
2023-02-26T04:34:13.379Z,1.53
2023-02-26T04:36:40.139Z,1.60
2023-02-26T04:39:10.863Z,1.90
2023-02-26T04:41:38.951Z,1.90
2023-02-26T04:44:08.570Z,1.70
2023-02-26T04:46:37.868Z,1.67
2023-02-26T04:49:09.924Z,1.43
2023-02-26T04:51:38.483Z,1.50
2023-02-26T04:54:08.730Z,2.17
2023-02-26T04:56:35.604Z,1.50
2023-02-26T04:59:04.993Z,1.80
2023-02-26T05:01:37.036Z,1.73
2023-02-26T05:04:07.637Z,1.50
2023-02-26T05:06:37.495Z,1.70
2023-02-26T05:09:04.694Z,1.60
2023-02-26T05:11:31.463Z,1.67
2023-02-26T05:14:02.794Z,2.17
2023-02-26T05:16:31.929Z,2.00
2023-02-26T05:18:58.874Z,1.50
2023-02-26T05:21:26.455Z,1.13
2023-02-26T05:23:53.513Z,2.20
2023-02-26T05:26:22.743Z,1.90
2023-02-26T05:28:52.213Z,1.63
2023-02-26T05:31:19.734Z,1.80
2023-02-26T05:33:46.355Z,1.60
2023-02-26T05:36:15.770Z,1.87
2023-02-26T05:38:42.392Z,1.60
2023-02-26T05:41:11.302Z,1.87
2023-02-26T05:43:40.620Z,3.70
2023-02-26T05:46:07.479Z,1.80
2023-02-26T05:48:36.700Z,1.30
2023-02-26T05:51:03.559Z,1.90
2023-02-26T05:53:30.205Z,1.73
2023-02-26T05:55:57.054Z,1.50
2023-02-26T05:58:25.989Z,2.53
2023-02-26T06:00:55.430Z,1.80
2023-02-26T06:03:22.099Z,2.50
2023-02-26T06:05:51.032Z,1.63
2023-02-26T06:08:27.804Z,1.70
2023-02-26T06:10:59.388Z,2.40
2023-02-26T06:13:29.036Z,2.20
2023-02-26T06:15:55.806Z,1.67
2023-02-26T06:18:24.790Z,1.67
2023-02-26T06:20:56.378Z,1.50
2023-02-26T06:23:23.086Z,1.83
2023-02-26T06:25:53.224Z,1.80
2023-02-26T06:28:20.224Z,1.60
2023-02-26T06:30:53.061Z,2.20
2023-02-26T06:33:20.060Z,1.80
2023-02-26T06:35:47.045Z,1.87
2023-02-26T06:38:16.342Z,1.90
2023-02-26T06:40:43.087Z,1.83
2023-02-26T06:43:09.722Z,1.80
2023-02-26T06:45:40.371Z,2.37
2023-02-26T06:48:09.333Z,1.87
2023-02-26T06:50:39.025Z,1.70
2023-02-26T06:53:08.125Z,1.83
2023-02-26T06:55:34.804Z,1.50
2023-02-26T06:58:01.499Z,2.20
2023-02-26T07:00:28.210Z,2.33
2023-02-26T07:02:54.995Z,2.07
2023-02-26T07:05:24.159Z,2.23
2023-02-26T07:07:50.799Z,1.97
2023-02-26T07:10:17.743Z,1.87
2023-02-26T07:12:44.358Z,1.70
2023-02-26T07:15:13.480Z,1.77
2023-02-26T07:17:40.808Z,2.03
2023-02-26T07:20:10.283Z,1.97
2023-02-26T07:22:37.836Z,1.60
2023-02-26T07:25:08.640Z,2.37
2023-02-26T07:27:38.424Z,2.50
2023-02-26T07:30:06.620Z,2.47
2023-02-26T07:32:33.938Z,1.70
2023-02-26T07:35:00.612Z,1.90
2023-02-26T07:37:27.380Z,2.20
2023-02-26T07:39:56.332Z,2.07
2023-02-26T07:42:23.055Z,2.03
2023-02-26T07:44:51.212Z,2.00
2023-02-26T07:47:18.117Z,1.60
2023-02-26T07:49:47.797Z,2.00
2023-02-26T07:52:14.460Z,1.60
2023-02-26T07:54:43.446Z,2.37
2023-02-26T07:57:10.159Z,2.03
2023-02-26T07:59:36.844Z,2.10
2023-02-26T08:02:06.475Z,2.43
2023-02-26T08:04:33.372Z,1.77
2023-02-26T08:07:01.608Z,2.37
2023-02-26T08:09:28.720Z,1.90
2023-02-26T08:11:57.851Z,1.67
2023-02-26T08:14:24.559Z,2.53
2023-02-26T08:16:53.638Z,2.00
2023-02-26T08:19:20.344Z,2.20
2023-02-26T08:21:47.874Z,2.57
2023-02-26T08:24:16.884Z,2.60
2023-02-26T08:26:43.553Z,2.37
2023-02-26T08:29:10.250Z,1.83
2023-02-26T08:31:37.014Z,2.40
2023-02-26T08:34:05.931Z,2.17
2023-02-26T08:36:34.991Z,2.00
2023-02-26T08:39:04.327Z,2.97
2023-02-26T08:41:32.453Z,2.40
2023-02-26T08:44:00.156Z,2.33
2023-02-26T08:46:27.281Z,2.77
2023-02-26T08:48:58.410Z,3.20
2023-02-26T08:51:27.688Z,2.77
2023-02-26T08:53:54.676Z,2.33
2023-02-26T08:56:21.383Z,2.30
2023-02-26T08:58:52.821Z,2.60
2023-02-26T09:01:19.551Z,2.30
2023-02-26T09:03:46.258Z,3.23
2023-02-26T09:06:12.972Z,3.33
2023-02-26T09:08:44.441Z,2.53
2023-02-26T09:11:15.940Z,1.97
2023-02-26T09:13:45.663Z,2.67
2023-02-26T09:16:14.692Z,2.33
2023-02-26T09:18:44.201Z,2.90
2023-02-26T09:21:13.204Z,2.90
2023-02-26T09:23:42.096Z,3.10
2023-02-26T09:26:09.168Z,3.10
2023-02-26T09:28:41.047Z,2.53
2023-02-26T09:31:07.987Z,3.10
2023-02-26T09:33:35.057Z,3.10
2023-02-26T09:36:05.389Z,3.00
2023-02-26T09:38:37.706Z,2.80
2023-02-26T09:41:09.967Z,2.97
2023-02-26T09:43:49.038Z,3.37
2023-02-26T09:46:30.199Z,3.20
2023-02-26T09:49:21.364Z,4.10
2023-02-26T09:52:05.241Z,3.13
2023-02-26T09:54:41.566Z,3.63
2023-02-26T09:57:21.930Z,3.00
2023-02-26T09:59:52.297Z,3.60
2023-02-26T10:02:38.238Z,3.80
2023-02-26T10:05:17.931Z,3.23
2023-02-26T10:07:47.615Z,3.37
2023-02-26T10:10:23.358Z,3.03
2023-02-26T10:12:54.212Z,3.80
2023-02-26T10:15:29.245Z,2.90
2023-02-26T10:18:05.059Z,3.43
2023-02-26T10:21:03.890Z,3.33
2023-02-26T10:24:01.690Z,3.13
2023-02-26T10:26:45.318Z,2.70
2023-02-26T10:29:23.287Z,3.47
2023-02-26T10:32:14.479Z,2.97
2023-02-26T10:34:51.655Z,3.07
2023-02-26T10:37:24.300Z,2.67
2023-02-26T10:40:09.323Z,3.20
2023-02-26T10:42:43.931Z,2.83
2023-02-26T10:45:31.549Z,3.50
2023-02-26T10:48:29.205Z,2.90
2023-02-26T10:50:58.910Z,3.20
2023-02-26T10:53:29.969Z,3.50
2023-02-26T10:56:04.474Z,3.40
2023-02-26T10:58:31.197Z,3.30
2023-02-26T11:01:01.016Z,2.93
2023-02-26T11:03:30.848Z,3.13
2023-02-26T11:05:58.033Z,3.60
2023-02-26T11:08:32.594Z,2.87
2023-02-26T11:11:02.102Z,3.33
2023-02-26T11:13:32.045Z,3.50
2023-02-26T11:16:10.693Z,3.03
2023-02-26T11:19:00.521Z,3.10
2023-02-26T11:21:40.453Z,3.80
2023-02-26T11:24:11.883Z,3.40
2023-02-26T11:26:48.179Z,3.37
2023-02-26T11:29:20.548Z,4.13
2023-02-26T11:31:55.785Z,3.23
2023-02-26T11:34:26.450Z,3.50
2023-02-26T11:37:01.216Z,3.17
2023-02-26T11:39:33.393Z,3.37
2023-02-26T11:42:04.456Z,3.87
2023-02-26T11:44:40.127Z,2.87
2023-02-26T11:47:35.794Z,2.77
2023-02-26T11:50:14.320Z,3.00
2023-02-26T11:52:44.669Z,2.80
2023-02-26T11:55:27.841Z,3.30
2023-02-26T11:57:55.846Z,3.30
2023-02-26T12:00:29.591Z,2.80
2023-02-26T12:03:09.078Z,2.70
2023-02-26T12:05:39.137Z,3.00
2023-02-26T12:08:30.192Z,3.13
2023-02-26T12:11:08.714Z,2.97
2023-02-26T12:14:00.034Z,2.60
2023-02-26T12:17:05.459Z,3.17
2023-02-26T12:19:57.747Z,3.40
2023-02-26T12:23:18.699Z,2.13
2023-02-26T12:26:06.711Z,2.20
2023-02-26T12:28:47.584Z,2.20
2023-02-26T12:31:39.583Z,1.90
2023-02-26T12:34:37.424Z,2.03
2023-02-26T12:37:16.158Z,2.57
2023-02-26T12:40:06.608Z,2.20
2023-02-26T12:42:51.459Z,2.40
2023-02-26T12:45:29.265Z,2.53
2023-02-26T12:48:14.628Z,3.07
2023-02-26T12:50:59.316Z,2.17
2023-02-26T12:53:28.677Z,1.60
2023-02-26T12:56:21.532Z,3.90
2023-02-26T12:59:32.790Z,2.07
2023-02-26T13:02:24.170Z,1.93
2023-02-26T13:05:20.309Z,2.40
2023-02-26T13:07:50.073Z,1.97
2023-02-26T13:10:49.137Z,2.40
2023-02-26T13:13:54.551Z,2.13
2023-02-26T13:16:50.515Z,2.10
2023-02-26T13:19:22.768Z,1.90
2023-02-26T13:22:16.249Z,1.90
2023-02-26T13:24:53.576Z,3.10
2023-02-26T13:27:27.885Z,2.60
2023-02-26T13:30:03.720Z,3.40
2023-02-26T13:32:34.204Z,3.00
2023-02-26T13:35:31.697Z,2.70
2023-02-26T13:38:10.536Z,2.73
2023-02-26T13:40:40.173Z,2.43
2023-02-26T13:43:28.008Z,2.53
2023-02-26T13:46:15.283Z,2.40
2023-02-26T13:48:51.153Z,3.30
2023-02-26T13:51:43.071Z,3.30
2023-02-26T13:54:14.297Z,3.63
2023-02-26T13:56:46.981Z,3.73
2023-02-26T13:59:14.570Z,2.63
2023-02-26T14:01:50.163Z,2.90
2023-02-26T14:04:19.476Z,2.43
2023-02-26T14:06:52.042Z,2.10
2023-02-26T14:09:21.709Z,3.00
2023-02-26T14:12:23.998Z,2.77
2023-02-26T14:15:02.938Z,2.70
2023-02-26T14:17:36.179Z,2.93
2023-02-26T14:20:37.662Z,3.23
2023-02-26T14:23:12.717Z,2.37
2023-02-26T14:25:47.648Z,2.30
2023-02-26T14:28:29.430Z,2.30
2023-02-26T14:31:11.592Z,2.50
2023-02-26T14:34:18.248Z,2.37
2023-02-26T14:36:58.273Z,1.73
2023-02-26T14:39:57.943Z,1.77
2023-02-26T14:42:24.629Z,1.67
2023-02-26T14:45:03.688Z,2.53
2023-02-26T14:47:35.112Z,2.00
2023-02-26T14:50:06.253Z,2.10
2023-02-26T14:52:36.127Z,2.43
2023-02-26T14:55:09.455Z,2.43
2023-02-26T14:57:47.913Z,2.27
2023-02-26T15:00:33.417Z,2.20
2023-02-26T15:03:27.179Z,2.30
2023-02-26T15:05:56.629Z,2.40
2023-02-26T15:08:42.788Z,2.30
2023-02-26T15:11:32.994Z,2.20
2023-02-26T15:14:13.099Z,2.50
2023-02-26T15:16:51.910Z,1.67
2023-02-26T15:19:27.516Z,1.90
2023-02-26T15:22:09.599Z,1.73
2023-02-26T15:24:38.574Z,2.40
2023-02-26T15:27:08.618Z,2.30
2023-02-26T15:29:37.929Z,1.90
2023-02-26T15:32:26.021Z,2.00
2023-02-26T15:35:21.180Z,2.03
2023-02-26T15:37:53.887Z,2.40
2023-02-26T15:40:23.552Z,2.00
2023-02-26T15:42:58.720Z,2.50
2023-02-26T15:45:31.556Z,2.33
2023-02-26T15:48:02.749Z,2.80
2023-02-26T15:50:38.221Z,2.60
2023-02-26T15:53:09.538Z,2.60
2023-02-26T15:55:49.864Z,2.20
2023-02-26T15:58:39.937Z,2.63
2023-02-26T16:01:15.728Z,2.30
2023-02-26T16:03:44.804Z,2.40
2023-02-26T16:06:24.867Z,2.80
2023-02-26T16:08:54.068Z,3.83
2023-02-26T16:11:22.748Z,3.83
2023-02-26T16:13:58.900Z,2.30
2023-02-26T16:16:42.114Z,3.40
2023-02-26T16:19:17.673Z,3.30
2023-02-26T16:21:46.111Z,2.00
2023-02-26T16:24:17.792Z,2.70
2023-02-26T16:26:56.245Z,2.60
2023-02-26T16:29:27.058Z,2.10
2023-02-26T16:32:01.767Z,2.17
2023-02-26T16:34:36.213Z,2.27
2023-02-26T16:37:23.172Z,2.37
2023-02-26T16:40:16.687Z,2.03
2023-02-26T16:42:57.847Z,2.43
2023-02-26T16:45:36.672Z,2.40
2023-02-26T16:48:17.285Z,2.00
2023-02-26T16:50:44.388Z,2.00
2023-02-26T16:53:18.668Z,2.40
2023-02-26T16:55:52.750Z,2.30
2023-02-26T16:58:23.023Z,2.50
2023-02-26T17:01:00.160Z,2.53
2023-02-26T17:03:29.967Z,2.20
2023-02-26T17:06:04.439Z,2.00
2023-02-26T17:08:54.511Z,2.27
2023-02-26T17:11:28.285Z,3.93
2023-02-26T17:14:10.124Z,4.60
2023-02-26T17:16:37.175Z,2.80
2023-02-26T17:19:04.255Z,2.40
2023-02-26T17:21:42.496Z,2.60
2023-02-26T17:24:18.563Z,2.53
2023-02-26T17:26:49.434Z,2.20
2023-02-26T17:29:24.958Z,2.40
2023-02-26T17:31:54.010Z,2.60
2023-02-26T17:34:23.537Z,2.30
2023-02-26T17:36:50.529Z,2.33
2023-02-26T17:39:20.266Z,2.33
2023-02-26T17:41:51.511Z,2.53
2023-02-26T17:44:20.495Z,3.23
2023-02-26T17:46:49.589Z,3.57
2023-02-26T17:49:23.568Z,3.07
2023-02-26T17:51:56.039Z,5.70
2023-02-26T17:54:23.161Z,3.63
2023-02-26T17:56:52.168Z,2.53
2023-02-26T17:59:21.677Z,2.90
2023-02-26T18:01:53.564Z,3.10
2023-02-26T18:04:22.750Z,2.30
2023-02-26T18:06:51.928Z,3.43
2023-02-26T18:09:21.201Z,3.47
2023-02-26T18:11:47.943Z,2.80
2023-02-26T18:14:14.640Z,2.63
2023-02-26T18:16:46.680Z,2.80
2023-02-26T18:19:15.088Z,4.70
2023-02-26T18:21:41.881Z,5.07
2023-02-26T18:24:13.599Z,3.80
2023-02-26T18:26:43.370Z,2.40
2023-02-26T18:29:11.305Z,2.50
2023-02-26T18:31:38.747Z,3.40
2023-02-26T18:34:05.751Z,4.53
2023-02-26T18:36:39.721Z,4.07
2023-02-26T18:39:12.649Z,3.63
2023-02-26T18:41:39.699Z,4.30
2023-02-26T18:44:06.387Z,3.40
2023-02-26T18:46:34.991Z,4.27
2023-02-26T18:49:01.842Z,4.43
2023-02-26T18:51:29.938Z,4.03
2023-02-26T18:53:58.769Z,3.93
2023-02-26T18:56:25.494Z,4.17
2023-02-26T18:58:52.254Z,4.40
2023-02-26T19:01:24.629Z,3.70
2023-02-26T19:03:51.423Z,3.87
2023-02-26T19:06:18.316Z,3.27
2023-02-26T19:08:45.084Z,2.93
2023-02-26T19:11:12.018Z,3.60
2023-02-26T19:13:42.338Z,3.50
2023-02-26T19:16:09.260Z,3.67
2023-02-26T19:18:36.103Z,5.00
2023-02-26T19:21:04.856Z,4.90
2023-02-26T19:23:31.756Z,5.57
2023-02-26T19:25:58.654Z,4.80
2023-02-26T19:28:27.628Z,3.73
2023-02-26T19:30:56.977Z,4.20
2023-02-26T19:33:28.675Z,4.30
2023-02-26T19:35:55.685Z,4.40
2023-02-26T19:38:23.587Z,3.73
2023-02-26T19:40:50.984Z,4.37
2023-02-26T19:43:20.075Z,4.17
2023-02-26T19:45:46.922Z,4.00
2023-02-26T19:48:13.687Z,4.20
2023-02-26T19:50:40.411Z,4.23
2023-02-26T19:53:07.322Z,3.63
2023-02-26T19:55:34.082Z,5.10
2023-02-26T19:58:00.783Z,4.80
2023-02-26T20:00:29.706Z,4.30
2023-02-26T20:02:59.264Z,4.80
2023-02-26T20:05:28.359Z,4.40
2023-02-26T20:07:56.617Z,4.20
2023-02-26T20:10:24.448Z,4.50
2023-02-26T20:12:51.320Z,3.80
2023-02-26T20:15:18.582Z,4.30
2023-02-26T20:17:49.105Z,4.87
2023-02-26T20:20:16.274Z,4.23
2023-02-26T20:22:45.802Z,3.80
2023-02-26T20:25:12.848Z,5.23
2023-02-26T20:27:39.796Z,4.60
2023-02-26T20:30:12.093Z,4.40
2023-02-26T20:32:41.197Z,4.50
2023-02-26T20:35:11.381Z,4.43
2023-02-26T20:37:40.277Z,4.60
2023-02-26T20:40:09.982Z,3.87
2023-02-26T20:42:38.964Z,3.70
2023-02-26T20:45:07.982Z,4.10
2023-02-26T20:47:37.182Z,4.20
2023-02-26T20:50:04.302Z,4.40
2023-02-26T20:52:31.100Z,4.53
2023-02-26T20:54:57.917Z,5.07
2023-02-26T20:57:24.942Z,4.20
2023-02-26T20:59:54.635Z,4.60
2023-02-26T21:02:23.868Z,3.90
2023-02-26T21:04:50.684Z,3.60
2023-02-26T21:07:23.338Z,4.00
2023-02-26T21:09:52.157Z,3.80
2023-02-26T21:12:19.427Z,4.13
2023-02-26T21:14:46.254Z,4.07
2023-02-26T21:17:15.292Z,4.70
2023-02-26T21:19:42.572Z,3.90
2023-02-26T21:22:14.550Z,3.67
2023-02-26T21:24:44.329Z,3.90
2023-02-26T21:27:14.207Z,3.70
2023-02-26T21:29:41.086Z,2.97
2023-02-26T21:32:10.822Z,3.97
2023-02-26T21:34:37.601Z,4.00
2023-02-26T21:37:09.659Z,3.40
2023-02-26T21:39:41.007Z,3.70
2023-02-26T21:42:11.184Z,3.70
2023-02-26T21:44:40.344Z,3.60
2023-02-26T21:47:10.458Z,4.30
2023-02-26T21:49:37.872Z,3.50
2023-02-26T21:52:10.935Z,3.23
2023-02-26T21:54:37.711Z,3.80
2023-02-26T21:57:09.544Z,3.80
2023-02-26T21:59:36.322Z,3.70
2023-02-26T22:02:07.876Z,4.10
2023-02-26T22:04:37.165Z,3.60
2023-02-26T22:07:03.947Z,3.00
2023-02-26T22:09:30.827Z,3.60
2023-02-26T22:12:05.256Z,3.87
2023-02-26T22:14:32.030Z,3.27
2023-02-26T22:17:01.174Z,3.70
2023-02-26T22:19:32.855Z,3.10
2023-02-26T22:22:02.225Z,3.13
2023-02-26T22:24:29.018Z,3.20
2023-02-26T22:27:00.746Z,2.90
2023-02-26T22:29:29.890Z,2.47
2023-02-26T22:32:01.584Z,3.27
2023-02-26T22:34:33.237Z,2.80
2023-02-26T22:37:03.039Z,2.70
2023-02-26T22:39:29.819Z,3.57
2023-02-26T22:41:56.634Z,3.00
2023-02-26T22:44:23.409Z,3.13
2023-02-26T22:46:50.376Z,3.43
2023-02-26T22:49:18.139Z,2.83
2023-02-26T22:51:47.820Z,3.33
2023-02-26T22:54:16.789Z,3.23
2023-02-26T22:56:48.130Z,3.00
2023-02-26T22:59:14.937Z,3.77
2023-02-26T23:01:41.982Z,3.47
2023-02-26T23:04:08.886Z,3.13
2023-02-26T23:06:36.695Z,4.30
2023-02-26T23:09:08.327Z,3.63
2023-02-26T23:11:35.303Z,3.43
2023-02-26T23:14:04.363Z,3.10
2023-02-26T23:16:36.373Z,3.70
2023-02-26T23:19:05.309Z,4.57
2023-02-26T23:21:34.490Z,3.50
2023-02-26T23:24:06.028Z,3.97
2023-02-26T23:26:33.163Z,4.17
2023-02-26T23:29:06.416Z,4.10
2023-02-26T23:31:35.721Z,2.57
2023-02-26T23:34:04.800Z,3.20
2023-02-26T23:36:34.045Z,3.83
2023-02-26T23:39:00.914Z,3.23
2023-02-26T23:41:27.840Z,3.13
2023-02-26T23:43:56.801Z,3.40
2023-02-26T23:46:24.011Z,3.50
2023-02-26T23:48:53.069Z,3.53
2023-02-26T23:51:25.560Z,3.73
2023-02-26T23:53:52.414Z,3.30
2023-02-26T23:56:19.134Z,3.77
2023-02-26T23:58:53.342Z,3.30
